sensor_id;sensor_type;location;lat;lon;timestamp;pressure;altitude;pressure_sealevel;temperature;humidity
48968;BME280;46511;53.148;8.204;2023-08-31T00:00:21;100599.47;;;13.47;100.00
48968;BME280;46511;53.148;8.204;2023-08-31T00:02:52;100594.00;;;13.49;100.00
48968;BME280;46511;53.148;8.204;2023-08-31T00:05:24;100593.78;;;13.52;100.00
48968;BME280;46511;53.148;8.204;2023-08-31T00:08:01;100595.16;;;13.44;100.00
48968;BME280;46511;53.148;8.204;2023-08-31T00:10:33;100596.56;;;13.50;100.00
48968;BME280;46511;53.148;8.204;2023-08-31T00:13:06;100589.09;;;13.42;100.00
48968;BME280;46511;53.148;8.204;2023-08-31T00:15:40;100592.09;;;13.38;100.00
48968;BME280;46511;53.148;8.204;2023-08-31T00:18:12;100587.75;;;13.37;100.00
48968;BME280;46511;53.148;8.204;2023-08-31T00:20:43;100586.88;;;13.36;100.00
48968;BME280;46511;53.148;8.204;2023-08-31T00:23:15;100587.19;;;13.32;100.00
48968;BME280;46511;53.148;8.204;2023-08-31T00:25:46;100595.94;;;13.34;100.00
48968;BME280;46511;53.148;8.204;2023-08-31T00:28:19;100600.63;;;13.05;100.00
48968;BME280;46511;53.148;8.204;2023-08-31T00:30:50;100607.88;;;13.15;100.00
48968;BME280;46511;53.148;8.204;2023-08-31T00:33:22;100606.28;;;13.13;100.00
48968;BME280;46511;53.148;8.204;2023-08-31T00:36:00;100607.47;;;13.09;100.00
48968;BME280;46511;53.148;8.204;2023-08-31T00:38:34;100610.88;;;13.11;100.00
48968;BME280;46511;53.148;8.204;2023-08-31T00:41:07;100614.06;;;13.16;100.00
48968;BME280;46511;53.148;8.204;2023-08-31T00:43:38;100612.59;;;13.12;100.00
48968;BME280;46511;53.148;8.204;2023-08-31T00:46:09;100617.19;;;13.10;100.00
48968;BME280;46511;53.148;8.204;2023-08-31T00:48:41;100616.00;;;13.14;100.00
48968;BME280;46511;53.148;8.204;2023-08-31T00:51:12;100615.34;;;13.10;100.00
48968;BME280;46511;53.148;8.204;2023-08-31T00:53:44;100607.25;;;13.12;100.00
48968;BME280;46511;53.148;8.204;2023-08-31T00:56:16;100608.94;;;13.13;100.00
48968;BME280;46511;53.148;8.204;2023-08-31T00:58:48;100613.78;;;13.08;100.00
48968;BME280;46511;53.148;8.204;2023-08-31T01:01:25;100613.44;;;13.00;100.00
48968;BME280;46511;53.148;8.204;2023-08-31T01:04:08;100612.16;;;13.05;100.00
48968;BME280;46511;53.148;8.204;2023-08-31T01:06:54;100609.81;;;13.01;100.00
48968;BME280;46511;53.148;8.204;2023-08-31T01:12:52;100606.28;;;13.13;100.00
48968;BME280;46511;53.148;8.204;2023-08-31T01:15:28;100605.75;;;13.08;100.00
48968;BME280;46511;53.148;8.204;2023-08-31T01:17:58;100607.03;;;13.15;100.00
48968;BME280;46511;53.148;8.204;2023-08-31T01:20:34;100604.56;;;13.12;100.00
48968;BME280;46511;53.148;8.204;2023-08-31T01:23:10;100603.09;;;13.08;100.00
48968;BME280;46511;53.148;8.204;2023-08-31T01:25:45;100599.56;;;13.07;100.00
48968;BME280;46511;53.148;8.204;2023-08-31T01:28:17;100598.69;;;13.07;100.00
48968;BME280;46511;53.148;8.204;2023-08-31T01:30:48;100611.50;;;13.02;100.00
48968;BME280;46511;53.148;8.204;2023-08-31T01:33:19;100607.78;;;12.92;100.00
48968;BME280;46511;53.148;8.204;2023-08-31T01:35:51;100605.84;;;12.94;100.00
48968;BME280;46511;53.148;8.204;2023-08-31T01:38:27;100606.41;;;12.99;100.00
48968;BME280;46511;53.148;8.204;2023-08-31T01:41:03;100596.16;;;12.93;100.00
48968;BME280;46511;53.148;8.204;2023-08-31T01:43:38;100602.34;;;12.93;100.00
48968;BME280;46511;53.148;8.204;2023-08-31T01:46:11;100607.03;;;12.90;100.00
48968;BME280;46511;53.148;8.204;2023-08-31T01:48:43;100593.72;;;12.90;100.00
48968;BME280;46511;53.148;8.204;2023-08-31T01:51:15;100595.50;;;12.76;100.00
48968;BME280;46511;53.148;8.204;2023-08-31T01:53:48;100598.91;;;12.78;100.00
48968;BME280;46511;53.148;8.204;2023-08-31T01:56:19;100596.25;;;12.78;100.00
48968;BME280;46511;53.148;8.204;2023-08-31T01:58:52;100602.13;;;12.71;100.00
48968;BME280;46511;53.148;8.204;2023-08-31T02:01:23;100597.84;;;12.68;100.00
48968;BME280;46511;53.148;8.204;2023-08-31T02:03:55;100598.91;;;12.66;100.00
48968;BME280;46511;53.148;8.204;2023-08-31T02:06:26;100596.97;;;12.55;100.00
48968;BME280;46511;53.148;8.204;2023-08-31T02:08:57;100602.19;;;12.56;100.00
48968;BME280;46511;53.148;8.204;2023-08-31T02:11:29;100595.38;;;12.65;100.00
48968;BME280;46511;53.148;8.204;2023-08-31T02:14:00;100603.59;;;12.62;100.00
48968;BME280;46511;53.148;8.204;2023-08-31T02:16:31;100596.25;;;12.66;100.00
48968;BME280;46511;53.148;8.204;2023-08-31T02:19:03;100599.63;;;12.55;100.00
48968;BME280;46511;53.148;8.204;2023-08-31T02:21:34;100601.34;;;12.56;100.00
48968;BME280;46511;53.148;8.204;2023-08-31T02:24:05;100599.63;;;12.55;100.00
48968;BME280;46511;53.148;8.204;2023-08-31T02:26:37;100602.53;;;12.52;100.00
48968;BME280;46511;53.148;8.204;2023-08-31T02:29:08;100599.94;;;12.50;100.00
48968;BME280;46511;53.148;8.204;2023-08-31T02:31:40;100598.69;;;12.56;100.00
48968;BME280;46511;53.148;8.204;2023-08-31T02:34:12;100598.91;;;12.53;100.00
48968;BME280;46511;53.148;8.204;2023-08-31T02:36:43;100608.09;;;12.62;100.00
48968;BME280;46511;53.148;8.204;2023-08-31T02:39:15;100604.63;;;12.59;100.00
48968;BME280;46511;53.148;8.204;2023-08-31T02:41:42;100603.38;;;12.52;100.00
48968;BME280;46511;53.148;8.204;2023-08-31T02:44:13;100612.09;;;12.54;100.00
48968;BME280;46511;53.148;8.204;2023-08-31T02:46:45;100603.78;;;12.46;100.00
48968;BME280;46511;53.148;8.204;2023-08-31T02:49:16;100607.19;;;12.48;100.00
48968;BME280;46511;53.148;8.204;2023-08-31T02:51:47;100598.16;;;12.51;100.00
48968;BME280;46511;53.148;8.204;2023-08-31T02:54:20;100602.06;;;12.33;100.00
48968;BME280;46511;53.148;8.204;2023-08-31T02:56:51;100599.69;;;12.41;100.00
48968;BME280;46511;53.148;8.204;2023-08-31T02:59:22;100598.66;;;12.43;100.00
48968;BME280;46511;53.148;8.204;2023-08-31T03:01:54;100612.84;;;12.44;100.00
48968;BME280;46511;53.148;8.204;2023-08-31T03:04:25;100606.53;;;12.45;100.00
48968;BME280;46511;53.148;8.204;2023-08-31T03:06:57;100599.09;;;12.50;100.00
48968;BME280;46511;53.148;8.204;2023-08-31T03:09:29;100594.72;;;12.49;100.00
48968;BME280;46511;53.148;8.204;2023-08-31T03:12:00;100600.38;;;12.57;100.00
48968;BME280;46511;53.148;8.204;2023-08-31T03:14:31;100604.78;;;12.31;100.00
48968;BME280;46511;53.148;8.204;2023-08-31T03:17:03;100595.66;;;12.35;100.00
48968;BME280;46511;53.148;8.204;2023-08-31T03:19:34;100600.31;;;12.32;100.00
48968;BME280;46511;53.148;8.204;2023-08-31T03:22:06;100594.59;;;12.38;100.00
48968;BME280;46511;53.148;8.204;2023-08-31T03:24:37;100590.09;;;12.25;100.00
48968;BME280;46511;53.148;8.204;2023-08-31T03:27:09;100595.41;;;12.25;100.00
48968;BME280;46511;53.148;8.204;2023-08-31T03:29:40;100601.13;;;12.19;100.00
48968;BME280;46511;53.148;8.204;2023-08-31T03:32:11;100593.59;;;12.26;100.00
48968;BME280;46511;53.148;8.204;2023-08-31T03:34:43;100606.06;;;12.25;100.00
48968;BME280;46511;53.148;8.204;2023-08-31T03:37:14;100602.44;;;12.26;100.00
48968;BME280;46511;53.148;8.204;2023-08-31T03:39:43;100604.25;;;12.26;100.00
48968;BME280;46511;53.148;8.204;2023-08-31T03:42:14;100607.03;;;12.24;100.00
48968;BME280;46511;53.148;8.204;2023-08-31T03:44:46;100611.41;;;12.38;100.00
48968;BME280;46511;53.148;8.204;2023-08-31T03:47:18;100610.78;;;12.35;100.00
48968;BME280;46511;53.148;8.204;2023-08-31T03:49:49;100613.09;;;12.26;100.00
48968;BME280;46511;53.148;8.204;2023-08-31T03:52:20;100616.50;;;12.28;100.00
48968;BME280;46511;53.148;8.204;2023-08-31T03:54:51;100614.34;;;12.21;100.00
48968;BME280;46511;53.148;8.204;2023-08-31T03:57:25;100618.66;;;12.36;100.00
48968;BME280;46511;53.148;8.204;2023-08-31T03:59:57;100624.22;;;12.46;100.00
48968;BME280;46511;53.148;8.204;2023-08-31T04:02:28;100623.78;;;12.39;100.00
48968;BME280;46511;53.148;8.204;2023-08-31T04:05:02;100623.03;;;12.37;100.00
48968;BME280;46511;53.148;8.204;2023-08-31T04:07:36;100621.44;;;12.35;100.00
48968;BME280;46511;53.148;8.204;2023-08-31T04:10:07;100625.69;;;12.37;100.00
48968;BME280;46511;53.148;8.204;2023-08-31T04:12:39;100633.25;;;12.30;100.00
48968;BME280;46511;53.148;8.204;2023-08-31T04:15:10;100622.41;;;12.34;100.00
48968;BME280;46511;53.148;8.204;2023-08-31T04:17:42;100627.47;;;12.51;100.00
48968;BME280;46511;53.148;8.204;2023-08-31T04:20:14;100624.22;;;12.46;100.00
48968;BME280;46511;53.148;8.204;2023-08-31T04:22:45;100632.97;;;12.48;100.00
48968;BME280;46511;53.148;8.204;2023-08-31T04:25:16;100635.97;;;12.43;100.00
48968;BME280;46511;53.148;8.204;2023-08-31T04:27:48;100630.25;;;12.62;100.00
48968;BME280;46511;53.148;8.204;2023-08-31T04:30:19;100632.56;;;12.54;100.00
48968;BME280;46511;53.148;8.204;2023-08-31T04:32:51;100629.16;;;12.52;100.00
48968;BME280;46511;53.148;8.204;2023-08-31T04:35:22;100637.56;;;12.46;100.00
48968;BME280;46511;53.148;8.204;2023-08-31T04:37:53;100638.53;;;12.45;100.00
48968;BME280;46511;53.148;8.204;2023-08-31T04:40:25;100636.94;;;12.55;100.00
48968;BME280;46511;53.148;8.204;2023-08-31T04:42:58;100638.13;;;12.51;100.00
48968;BME280;46511;53.148;8.204;2023-08-31T04:45:24;100638.44;;;12.59;100.00
48968;BME280;46511;53.148;8.204;2023-08-31T04:47:55;100647.25;;;12.47;100.00
48968;BME280;46511;53.148;8.204;2023-08-31T04:50:26;100657.09;;;12.59;100.00
48968;BME280;46511;53.148;8.204;2023-08-31T04:52:58;100651.56;;;12.62;100.00
48968;BME280;46511;53.148;8.204;2023-08-31T04:55:29;100647.50;;;12.56;100.00
48968;BME280;46511;53.148;8.204;2023-08-31T04:58:00;100652.44;;;12.75;100.00
48968;BME280;46511;53.148;8.204;2023-08-31T05:00:32;100647.34;;;12.85;100.00
48968;BME280;46511;53.148;8.204;2023-08-31T05:03:03;100648.28;;;12.71;100.00
48968;BME280;46511;53.148;8.204;2023-08-31T05:05:35;100635.69;;;12.73;100.00
48968;BME280;46511;53.148;8.204;2023-08-31T05:08:07;100643.13;;;12.68;100.00
48968;BME280;46511;53.148;8.204;2023-08-31T05:10:34;100643.38;;;12.78;100.00
48968;BME280;46511;53.148;8.204;2023-08-31T05:13:05;100642.22;;;12.95;100.00
48968;BME280;46511;53.148;8.204;2023-08-31T05:15:36;100644.78;;;12.96;100.00
48968;BME280;46511;53.148;8.204;2023-08-31T05:18:08;100648.22;;;12.98;100.00
48968;BME280;46511;53.148;8.204;2023-08-31T05:20:43;100643.53;;;13.02;100.00
48968;BME280;46511;53.148;8.204;2023-08-31T05:23:15;100649.09;;;13.24;100.00
48968;BME280;46511;53.148;8.204;2023-08-31T05:25:46;100644.94;;;13.20;100.00
48968;BME280;46511;53.148;8.204;2023-08-31T05:28:18;100640.97;;;13.26;100.00
48968;BME280;46511;53.148;8.204;2023-08-31T05:30:50;100644.72;;;13.23;100.00
48968;BME280;46511;53.148;8.204;2023-08-31T05:33:22;100648.19;;;13.75;100.00
48968;BME280;46511;53.148;8.204;2023-08-31T05:35:56;100642.06;;;13.85;100.00
48968;BME280;46511;53.148;8.204;2023-08-31T05:38:27;100649.78;;;14.14;100.00
48968;BME280;46511;53.148;8.204;2023-08-31T05:41:05;100651.63;;;15.07;100.00
48968;BME280;46511;53.148;8.204;2023-08-31T05:43:40;100635.22;;;16.87;100.00
48968;BME280;46511;53.148;8.204;2023-08-31T05:46:11;100634.03;;;17.21;100.00
48968;BME280;46511;53.148;8.204;2023-08-31T05:48:43;100639.31;;;17.32;100.00
48968;BME280;46511;53.148;8.204;2023-08-31T05:51:14;100642.03;;;15.61;100.00
48968;BME280;46511;53.148;8.204;2023-08-31T05:53:45;100651.06;;;14.80;100.00
48968;BME280;46511;53.148;8.204;2023-08-31T05:56:16;100654.66;;;14.68;100.00
48968;BME280;46511;53.148;8.204;2023-08-31T05:58:49;100656.97;;;15.52;100.00
48968;BME280;46511;53.148;8.204;2023-08-31T06:01:21;100650.78;;;17.13;100.00
48968;BME280;46511;53.148;8.204;2023-08-31T06:03:55;100649.94;;;19.21;100.00
48968;BME280;46511;53.148;8.204;2023-08-31T06:06:27;100641.16;;;18.03;100.00
48968;BME280;46511;53.148;8.204;2023-08-31T06:08:58;100651.41;;;17.48;100.00
48968;BME280;46511;53.148;8.204;2023-08-31T06:11:29;100651.16;;;16.35;100.00
48968;BME280;46511;53.148;8.204;2023-08-31T06:14:01;100654.47;;;15.62;100.00
48968;BME280;46511;53.148;8.204;2023-08-31T06:16:32;100637.78;;;18.01;100.00
48968;BME280;46511;53.148;8.204;2023-08-31T06:19:03;100649.19;;;16.37;100.00
48968;BME280;46511;53.148;8.204;2023-08-31T06:21:35;100657.63;;;15.78;100.00
48968;BME280;46511;53.148;8.204;2023-08-31T06:24:06;100654.44;;;17.64;100.00
48968;BME280;46511;53.148;8.204;2023-08-31T06:26:40;100649.03;;;19.77;100.00
48968;BME280;46511;53.148;8.204;2023-08-31T06:29:12;100649.31;;;18.70;100.00
48968;BME280;46511;53.148;8.204;2023-08-31T06:31:46;100648.97;;;19.12;100.00
48968;BME280;46511;53.148;8.204;2023-08-31T06:34:17;100642.38;;;19.81;100.00
48968;BME280;46511;53.148;8.204;2023-08-31T06:36:49;100646.63;;;20.29;100.00
48968;BME280;46511;53.148;8.204;2023-08-31T06:39:20;100644.19;;;21.15;100.00
48968;BME280;46511;53.148;8.204;2023-08-31T06:41:52;100647.28;;;22.55;100.00
48968;BME280;46511;53.148;8.204;2023-08-31T06:44:23;100640.53;;;23.16;100.00
48968;BME280;46511;53.148;8.204;2023-08-31T06:46:54;100648.19;;;20.49;100.00
48968;BME280;46511;53.148;8.204;2023-08-31T06:49:26;100653.41;;;18.84;100.00
48968;BME280;46511;53.148;8.204;2023-08-31T06:51:59;100664.34;;;17.63;100.00
48968;BME280;46511;53.148;8.204;2023-08-31T06:54:31;100675.72;;;17.04;100.00
48968;BME280;46511;53.148;8.204;2023-08-31T06:57:02;100676.81;;;16.06;100.00
48968;BME280;46511;53.148;8.204;2023-08-31T06:59:34;100678.69;;;15.94;100.00
48968;BME280;46511;53.148;8.204;2023-08-31T07:02:06;100685.38;;;15.77;100.00
48968;BME280;46511;53.148;8.204;2023-08-31T07:04:37;100680.31;;;16.17;100.00
48968;BME280;46511;53.148;8.204;2023-08-31T07:07:08;100688.66;;;15.69;100.00
48968;BME280;46511;53.148;8.204;2023-08-31T07:09:43;100682.16;;;15.16;100.00
48968;BME280;46511;53.148;8.204;2023-08-31T07:12:15;100691.22;;;15.82;100.00
48968;BME280;46511;53.148;8.204;2023-08-31T07:14:46;100689.22;;;15.39;100.00
48968;BME280;46511;53.148;8.204;2023-08-31T07:17:18;100698.38;;;15.82;100.00
48968;BME280;46511;53.148;8.204;2023-08-31T07:19:50;100688.19;;;15.76;100.00
48968;BME280;46511;53.148;8.204;2023-08-31T07:22:21;100693.25;;;16.12;100.00
48968;BME280;46511;53.148;8.204;2023-08-31T07:24:52;100691.34;;;15.92;100.00
48968;BME280;46511;53.148;8.204;2023-08-31T07:27:19;100690.16;;;16.28;100.00
48968;BME280;46511;53.148;8.204;2023-08-31T07:29:50;100691.47;;;16.02;100.00
48968;BME280;46511;53.148;8.204;2023-08-31T07:32:21;100692.25;;;16.24;100.00
48968;BME280;46511;53.148;8.204;2023-08-31T07:34:53;100685.53;;;16.41;100.00
48968;BME280;46511;53.148;8.204;2023-08-31T07:37:24;100686.47;;;16.51;100.00
48968;BME280;46511;53.148;8.204;2023-08-31T07:39:56;100691.03;;;16.17;100.00
48968;BME280;46511;53.148;8.204;2023-08-31T07:42:27;100699.41;;;16.67;100.00
48968;BME280;46511;53.148;8.204;2023-08-31T07:44:58;100707.97;;;16.72;100.00
48968;BME280;46511;53.148;8.204;2023-08-31T07:47:30;100689.88;;;17.27;100.00
48968;BME280;46511;53.148;8.204;2023-08-31T07:50:01;100698.84;;;17.37;100.00
48968;BME280;46511;53.148;8.204;2023-08-31T07:52:33;100697.72;;;17.40;100.00
48968;BME280;46511;53.148;8.204;2023-08-31T07:55:05;100700.94;;;17.13;100.00
48968;BME280;46511;53.148;8.204;2023-08-31T07:57:39;100696.81;;;17.09;100.00
48968;BME280;46511;53.148;8.204;2023-08-31T08:00:11;100697.13;;;16.95;100.00
48968;BME280;46511;53.148;8.204;2023-08-31T08:02:42;100696.69;;;16.46;100.00
48968;BME280;46511;53.148;8.204;2023-08-31T08:05:14;100699.00;;;16.51;100.00
48968;BME280;46511;53.148;8.204;2023-08-31T08:07:45;100699.34;;;16.69;100.00
48968;BME280;46511;53.148;8.204;2023-08-31T08:10:16;100703.50;;;17.14;100.00
48968;BME280;46511;53.148;8.204;2023-08-31T08:12:48;100706.88;;;16.75;100.00
48968;BME280;46511;53.148;8.204;2023-08-31T08:15:19;100711.69;;;17.13;100.00
48968;BME280;46511;53.148;8.204;2023-08-31T08:17:50;100710.59;;;16.83;100.00
48968;BME280;46511;53.148;8.204;2023-08-31T08:20:22;100726.25;;;16.67;100.00
48968;BME280;46511;53.148;8.204;2023-08-31T08:22:53;100728.13;;;16.99;100.00
48968;BME280;46511;53.148;8.204;2023-08-31T08:25:24;100725.41;;;17.40;100.00
48968;BME280;46511;53.148;8.204;2023-08-31T08:27:55;100733.28;;;17.32;100.00
48968;BME280;46511;53.148;8.204;2023-08-31T08:30:27;100737.75;;;16.69;100.00
48968;BME280;46511;53.148;8.204;2023-08-31T08:32:58;100734.97;;;17.75;100.00
48968;BME280;46511;53.148;8.204;2023-08-31T08:35:29;100731.00;;;18.60;100.00
48968;BME280;46511;53.148;8.204;2023-08-31T08:38:01;100737.47;;;18.47;100.00
48968;BME280;46511;53.148;8.204;2023-08-31T08:40:32;100741.91;;;18.18;100.00
48968;BME280;46511;53.148;8.204;2023-08-31T08:43:05;100741.13;;;18.46;100.00
48968;BME280;46511;53.148;8.204;2023-08-31T08:45:37;100739.72;;;19.68;100.00
48968;BME280;46511;53.148;8.204;2023-08-31T08:48:09;100740.41;;;21.33;100.00
48968;BME280;46511;53.148;8.204;2023-08-31T08:50:41;100746.16;;;21.56;100.00
48968;BME280;46511;53.148;8.204;2023-08-31T08:53:12;100743.25;;;20.43;100.00
48968;BME280;46511;53.148;8.204;2023-08-31T08:55:45;100747.72;;;20.24;100.00
48968;BME280;46511;53.148;8.204;2023-08-31T08:58:16;100759.78;;;21.29;100.00
48968;BME280;46511;53.148;8.204;2023-08-31T09:00:48;100745.03;;;22.27;100.00
48968;BME280;46511;53.148;8.204;2023-08-31T09:03:20;100753.75;;;22.71;100.00
48968;BME280;46511;53.148;8.204;2023-08-31T09:05:51;100752.31;;;23.18;100.00
48968;BME280;46511;53.148;8.204;2023-08-31T09:08:26;100753.69;;;23.62;100.00
48968;BME280;46511;53.148;8.204;2023-08-31T09:10:58;100759.69;;;24.75;100.00
48968;BME280;46511;53.148;8.204;2023-08-31T09:13:30;100756.66;;;24.39;100.00
48968;BME280;46511;53.148;8.204;2023-08-31T09:16:01;100755.84;;;24.22;96.91
48968;BME280;46511;53.148;8.204;2023-08-31T09:18:32;100754.28;;;27.76;78.98
48968;BME280;46511;53.148;8.204;2023-08-31T09:21:04;100746.88;;;29.13;70.76
48968;BME280;46511;53.148;8.204;2023-08-31T09:23:35;100740.97;;;32.77;53.17
48968;BME280;46511;53.148;8.204;2023-08-31T09:26:01;100740.88;;;30.22;60.62
48968;BME280;46511;53.148;8.204;2023-08-31T09:28:32;100730.50;;;31.82;50.59
48968;BME280;46511;53.148;8.204;2023-08-31T09:31:07;100730.59;;;34.14;45.59
48968;BME280;46511;53.148;8.204;2023-08-31T09:33:39;100733.25;;;33.86;45.97
48968;BME280;46511;53.148;8.204;2023-08-31T09:36:21;100720.91;;;34.00;39.64
48968;BME280;46511;53.148;8.204;2023-08-31T09:38:56;100726.41;;;31.91;43.13
48968;BME280;46511;53.148;8.204;2023-08-31T09:41:29;100729.66;;;29.59;49.70
48968;BME280;46511;53.148;8.204;2023-08-31T09:44:19;100715.44;;;30.91;45.05
48968;BME280;46511;53.148;8.204;2023-08-31T09:46:50;100709.38;;;32.37;47.42
48968;BME280;46511;53.148;8.204;2023-08-31T09:49:23;100710.44;;;32.66;44.60
48968;BME280;46511;53.148;8.204;2023-08-31T09:51:56;100703.72;;;31.34;44.22
48968;BME280;46511;53.148;8.204;2023-08-31T09:54:31;100707.13;;;30.28;46.19
48968;BME280;46511;53.148;8.204;2023-08-31T09:57:06;100719.72;;;27.06;65.21
48968;BME280;46511;53.148;8.204;2023-08-31T09:59:37;100716.03;;;25.23;89.49
48968;BME280;46511;53.148;8.204;2023-08-31T10:02:11;100719.72;;;22.61;100.00
48968;BME280;46511;53.148;8.204;2023-08-31T10:04:47;100716.31;;;22.42;100.00
48968;BME280;46511;53.148;8.204;2023-08-31T10:07:23;100719.41;;;22.80;100.00
48968;BME280;46511;53.148;8.204;2023-08-31T10:09:55;100720.22;;;25.63;96.92
48968;BME280;46511;53.148;8.204;2023-08-31T10:12:28;100715.72;;;26.44;83.29
48968;BME280;46511;53.148;8.204;2023-08-31T10:14:59;100710.34;;;26.93;79.92
48968;BME280;46511;53.148;8.204;2023-08-31T10:17:31;100717.44;;;24.42;98.56
48968;BME280;46511;53.148;8.204;2023-08-31T10:20:02;100727.25;;;23.07;100.00
48968;BME280;46511;53.148;8.204;2023-08-31T10:22:35;100729.97;;;25.43;100.00
48968;BME280;46511;53.148;8.204;2023-08-31T10:25:08;100721.31;;;30.57;76.41
48968;BME280;46511;53.148;8.204;2023-08-31T10:35:50;100721.16;;;25.03;99.79
48968;BME280;46511;53.148;8.204;2023-08-31T10:38:24;100722.66;;;24.12;100.00
48968;BME280;46511;53.148;8.204;2023-08-31T10:43:43;100708.41;;;27.09;88.60
48968;BME280;46511;53.148;8.204;2023-08-31T10:46:34;100711.75;;;29.10;69.96
48968;BME280;46511;53.148;8.204;2023-08-31T10:51:40;100713.66;;;27.87;55.95
48968;BME280;46511;53.148;8.204;2023-08-31T10:59:43;100728.22;;;25.27;82.40
48968;BME280;46511;53.148;8.204;2023-08-31T11:02:29;100742.00;;;24.79;88.74
48968;BME280;46511;53.148;8.204;2023-08-31T11:07:48;100736.28;;;24.43;88.06
48968;BME280;46511;53.148;8.204;2023-08-31T11:10:24;100737.63;;;25.39;73.31
48968;BME280;46511;53.148;8.204;2023-08-31T11:12:58;100740.06;;;25.86;64.85
48968;BME280;46511;53.148;8.204;2023-08-31T11:15:29;100739.28;;;26.22;63.27
48968;BME280;46511;53.148;8.204;2023-08-31T11:18:01;100737.75;;;25.00;82.77
48968;BME280;46511;53.148;8.204;2023-08-31T11:20:32;100733.88;;;24.48;79.17
48968;BME280;46511;53.148;8.204;2023-08-31T11:23:04;100728.91;;;23.65;91.59
48968;BME280;46511;53.148;8.204;2023-08-31T11:25:31;100752.66;;;23.39;96.82
48968;BME280;46511;53.148;8.204;2023-08-31T11:28:03;100770.06;;;22.29;100.00
48968;BME280;46511;53.148;8.204;2023-08-31T11:30:37;100767.94;;;21.55;100.00
48968;BME280;46511;53.148;8.204;2023-08-31T11:33:04;100765.75;;;21.32;100.00
48968;BME280;46511;53.148;8.204;2023-08-31T11:35:41;100768.59;;;21.31;100.00
48968;BME280;46511;53.148;8.204;2023-08-31T11:38:15;100786.09;;;21.45;100.00
48968;BME280;46511;53.148;8.204;2023-08-31T11:40:47;100774.69;;;21.59;100.00
48968;BME280;46511;53.148;8.204;2023-08-31T11:43:14;100776.72;;;22.51;100.00
48968;BME280;46511;53.148;8.204;2023-08-31T11:45:46;100789.41;;;22.50;100.00
48968;BME280;46511;53.148;8.204;2023-08-31T11:48:18;100816.69;;;21.27;100.00
48968;BME280;46511;53.148;8.204;2023-08-31T11:50:49;100826.97;;;19.67;100.00
48968;BME280;46511;53.148;8.204;2023-08-31T11:53:23;100820.25;;;18.84;100.00
48968;BME280;46511;53.148;8.204;2023-08-31T11:55:50;100821.31;;;18.52;100.00
48968;BME280;46511;53.148;8.204;2023-08-31T11:58:22;100827.88;;;17.98;100.00
48968;BME280;46511;53.148;8.204;2023-08-31T12:00:59;100831.19;;;18.42;100.00
48968;BME280;46511;53.148;8.204;2023-08-31T12:03:41;100836.91;;;18.59;100.00
48968;BME280;46511;53.148;8.204;2023-08-31T12:06:18;100830.88;;;18.76;100.00
48968;BME280;46511;53.148;8.204;2023-08-31T12:08:49;100832.91;;;19.03;100.00
48968;BME280;46511;53.148;8.204;2023-08-31T12:11:21;100829.09;;;19.44;100.00
48968;BME280;46511;53.148;8.204;2023-08-31T12:13:52;100831.06;;;19.81;100.00
48968;BME280;46511;53.148;8.204;2023-08-31T12:16:23;100830.38;;;20.53;100.00
48968;BME280;46511;53.148;8.204;2023-08-31T12:18:58;100833.19;;;22.38;100.00
48968;BME280;46511;53.148;8.204;2023-08-31T12:21:30;100828.41;;;23.32;100.00
48968;BME280;46511;53.148;8.204;2023-08-31T12:24:03;100827.09;;;24.33;100.00
48968;BME280;46511;53.148;8.204;2023-08-31T12:26:36;100828.31;;;24.69;100.00
48968;BME280;46511;53.148;8.204;2023-08-31T12:29:08;100827.78;;;24.27;100.00
48968;BME280;46511;53.148;8.204;2023-08-31T12:31:39;100829.13;;;26.22;99.60
48968;BME280;46511;53.148;8.204;2023-08-31T12:34:11;100820.47;;;28.06;87.69
48968;BME280;46511;53.148;8.204;2023-08-31T12:36:42;100821.47;;;28.33;94.17
48968;BME280;46511;53.148;8.204;2023-08-31T12:39:13;100824.13;;;28.54;92.82
48968;BME280;46511;53.148;8.204;2023-08-31T12:41:45;100823.09;;;27.93;92.30
48968;BME280;46511;53.148;8.204;2023-08-31T12:44:16;100819.91;;;29.26;80.03
48968;BME280;46511;53.148;8.204;2023-08-31T12:46:47;100823.44;;;27.61;84.34
48968;BME280;46511;53.148;8.204;2023-08-31T12:49:19;100820.41;;;27.99;74.15
48968;BME280;46511;53.148;8.204;2023-08-31T12:51:51;100817.75;;;28.95;79.92
48968;BME280;46511;53.148;8.204;2023-08-31T12:54:25;100816.84;;;27.28;87.88
48968;BME280;46511;53.148;8.204;2023-08-31T12:56:57;100816.56;;;27.01;92.05
48968;BME280;46511;53.148;8.204;2023-08-31T12:59:28;100826.63;;;26.65;93.43
48968;BME280;46511;53.148;8.204;2023-08-31T13:01:59;100837.22;;;25.17;100.00
48968;BME280;46511;53.148;8.204;2023-08-31T13:04:31;100832.94;;;23.97;100.00
48968;BME280;46511;53.148;8.204;2023-08-31T13:07:02;100842.72;;;22.50;100.00
48968;BME280;46511;53.148;8.204;2023-08-31T13:09:34;100848.22;;;21.09;100.00
48968;BME280;46511;53.148;8.204;2023-08-31T13:12:05;100845.47;;;20.73;100.00
48968;BME280;46511;53.148;8.204;2023-08-31T13:14:36;100842.44;;;20.59;100.00
48968;BME280;46511;53.148;8.204;2023-08-31T13:17:03;100840.44;;;20.61;100.00
48968;BME280;46511;53.148;8.204;2023-08-31T13:19:29;100830.59;;;20.32;100.00
48968;BME280;46511;53.148;8.204;2023-08-31T13:22:01;100819.34;;;22.91;100.00
48968;BME280;46511;53.148;8.204;2023-08-31T13:24:32;100821.06;;;25.61;100.00
48968;BME280;46511;53.148;8.204;2023-08-31T13:27:04;100828.50;;;28.96;93.04
48968;BME280;46511;53.148;8.204;2023-08-31T13:29:35;100836.09;;;29.01;87.35